Time;durP1;ratioP1;P1;durP2;ratioP2;P2;SDS_P1;SDS_P2;PMS_P1;PMS_P2;Temp;Humidity;BMP_temperature;BMP_pressure;BME280_temperature;BME280_humidity;BME280_pressure;Samples;Min_cycle;Max_cycle;Signal;HPM_P1;HPM_P2
2022/10/23 00:09:41;;;;;;;31.55;13.95;;;;;;;;;;6256354;23;20440;-86
2022/10/23 00:12:08;;;;;;;35.70;14.68;;;;;;;;;;6255169;23;20367;-86
2022/10/23 00:14:34;;;;;;;35.83;13.95;;;;;;;;;;6228951;23;20048;-85
2022/10/23 00:17:41;;;;;;;29.38;14.65;;;;;;;;;;6202802;23;20016;-86
2022/10/23 00:20:08;;;;;;;33.95;14.50;;;;;;;;;;6248941;23;20024;-87
2022/10/23 00:22:36;;;;;;;31.58;14.80;;;;;;;;;;6227264;23;20026;-87
2022/10/23 00:25:06;;;;;;;32.42;14.98;;;;;;;;;;6254060;23;20024;-85
2022/10/23 00:27:32;;;;;;;33.00;14.48;;;;;;;;;;6260357;22;20019;-85
2022/10/23 00:35:40;;;;;;;28.55;16.02;;;;;;;;;;6323353;22;20021;-87
2022/10/23 00:38:37;;;;;;;35.58;16.02;;;10.30;99.90;;;;;;6320158;22;20023;-86
2022/10/23 00:41:50;;;;;;;31.90;16.52;;;10.20;99.90;;;;;;6292586;22;20026;-87
2022/10/23 00:44:34;;;;;;;39.20;16.10;;;;;;;;;;6345662;22;20355;-86
2022/10/23 00:47:03;;;;;;;30.83;16.88;;;;;;;;;;6345303;22;20022;-86
2022/10/23 00:49:34;;;;;;;38.22;19.25;;;;;;;;;;6319079;22;20030;-87
2022/10/23 00:52:11;;;;;;;35.90;19.40;;;;;;;;;;6344094;22;20030;-85
2022/10/23 00:54:39;;;;;;;36.45;17.83;;;;;;;;;;6344551;22;20019;-86
2022/10/23 01:09:02;;;;;;;33.47;19.38;;;;;;;;;;6278952;22;20035;-86
2022/10/23 01:12:07;;;;;;;36.83;19.75;;;;;;;;;;6302088;22;20019;-86
2022/10/23 01:18:03;;;;;;;38.53;22.67;;;;;;;;;;6345919;22;20036;-86
2022/10/23 01:20:59;;;;;;;45.58;22.00;;;;;;;;;;6304177;22;20034;-87
2022/10/23 01:23:34;;;;;;;39.20;22.52;;;;;;;;;;6354542;22;20018;-86
2022/10/23 01:26:22;;;;;;;47.13;22.17;;;;;;;;;;6349059;22;20053;-86
2022/10/23 01:28:56;;;;;;;35.40;21.77;;;;;;;;;;6295824;22;20014;-86
2022/10/23 01:31:25;;;;;;;59.63;21.92;;;;;;;;;;6343647;22;20019;-84
2022/10/23 01:34:06;;;;;;;39.70;21.45;;;;;;;;;;6289777;22;20066;-87
2022/10/23 01:36:34;;;;;;;40.50;20.63;;;;;;;;;;6341791;22;20030;-86
2022/10/23 01:39:16;;;;;;;37.13;22.30;;;;;;;;;;6341521;22;20023;-86
2022/10/23 01:41:52;;;;;;;47.22;24.25;;;;;;;;;;6340870;22;20037;-86
2022/10/23 01:44:37;;;;;;;50.70;24.27;;;;;;;;;;6315669;22;20090;-86
2022/10/23 01:47:05;;;;;;;50.35;23.88;;;;;;;;;;6311713;22;20023;-87
2022/10/23 01:49:54;;;;;;;47.20;25.08;;;;;;;;;;6314120;22;20078;-86
2022/10/23 01:52:30;;;;;;;49.58;28.17;;;;;;;;;;6285591;22;20526;-86
2022/10/23 01:58:55;;;;;;;49.08;28.17;;;10.00;99.90;;;;;;6347011;22;20011;-87
2022/10/23 02:01:25;;;;;;;66.45;30.88;;;;;;;;;;6317219;22;20352;-86
2022/10/23 02:03:51;;;;;;;65.93;30.75;;;;;;;;;;6346950;22;20015;-87
2022/10/23 02:06:23;;;;;;;58.80;29.92;;;;;;;;;;6347180;22;20050;-86
2022/10/23 02:08:50;;;;;;;55.83;29.33;;;;;;;;;;6346487;22;20025;-86
2022/10/23 02:11:18;;;;;;;74.32;33.35;;;;;;;;;;6293308;22;20034;-86
2022/10/23 02:14:12;;;;;;;57.97;31.60;;;;;;;;;;6316966;22;20034;-87
2022/10/23 02:16:47;;;;;;;51.45;30.55;;;;;;;;;;6225437;23;20051;-87
2022/10/23 02:19:36;;;;;;;53.58;29.90;;;;;;;;;;6222864;23;20027;-87
2022/10/23 02:25:15;;;;;;;84.57;30.00;;;;;;;;;;6281557;22;20041;-85
2022/10/23 02:30:24;;;;;;;107.72;31.40;;;;;;;;;;6344019;22;20029;-85
2022/10/23 02:33:01;;;;;;;75.20;31.55;;;;;;;;;;6316352;22;20022;-86
2022/10/23 02:35:39;;;;;;;53.63;30.15;;;;;;;;;;6348235;22;20102;-87
2022/10/23 02:38:30;;;;;;;58.03;30.83;;;;;;;;;;6292740;22;20019;-87
2022/10/23 02:41:19;;;;;;;68.15;33.17;;;;;;;;;;6293306;22;20103;-86
2022/10/23 02:44:09;;;;;;;56.25;31.52;;;;;;;;;;6302958;22;20475;-86
2022/10/23 02:46:56;;;;;;;58.92;30.67;;;;;;;;;;6272176;22;20389;-87
2022/10/23 02:49:41;;;;;;;75.60;31.63;;;;;;;;;;6319679;22;20022;-86
2022/10/23 02:52:38;;;;;;;57.00;30.63;;;;;;;;;;6291990;22;20019;-87
2022/10/23 02:55:18;;;;;;;60.03;29.15;;;;;;;;;;6292995;22;20061;-86
2022/10/23 02:58:13;;;;;;;56.70;31.60;;;;;;;;;;6315931;22;20052;-87
2022/10/23 03:00:41;;;;;;;63.13;31.35;;;;;;;;;;6304324;22;20394;-86
2022/10/23 03:09:21;;;;;;;57.50;32.42;;;;;;;;;;6319258;22;20023;-85
2022/10/23 03:15:50;;;;;;;67.07;32.58;;;;;;;;;;6342317;22;20025;-86
2022/10/23 03:18:54;;;;;;;53.67;31.48;;;;;;;;;;6316446;22;20023;-85
2022/10/23 03:21:45;;;;;;;70.03;32.58;;;;;;;;;;6288500;22;20443;-86
2022/10/23 03:24:14;;;;;;;64.68;31.92;;;;;;;;;;6314675;22;20439;-88
2022/10/23 03:26:40;;;;;;;42.10;27.92;;;;;;;;;;6315249;22;20018;-87
2022/10/23 03:29:06;;;;;;;46.58;29.15;;;;;;;;;;6266582;22;20038;-87
2022/10/23 03:31:42;;;;;;;43.83;26.40;;;;;;;;;;6320286;22;20026;-87
2022/10/23 03:34:10;;;;;;;53.55;27.20;;;;;;;;;;6346724;22;20029;-85
2022/10/23 03:36:36;;;;;;;44.45;26.52;;;;;;;;;;6318747;22;20021;-87
2022/10/23 03:39:08;;;;;;;44.55;26.15;;;;;;;;;;6347683;22;20022;-87
2022/10/23 03:41:45;;;;;;;57.67;29.00;;;;;;;;;;6319569;22;20074;-87
2022/10/23 03:44:14;;;;;;;47.25;27.77;;;;;;;;;;6345858;22;20054;-87
2022/10/23 03:46:40;;;;;;;48.05;26.88;;;;;;;;;;6320483;22;20038;-87
2022/10/23 03:49:06;;;;;;;42.72;26.77;;;;;;;;;;6324984;22;20015;-87
2022/10/23 03:51:42;;;;;;;50.55;26.98;;;;;;;;;;6273871;22;20023;-87
2022/10/23 03:54:28;;;;;;;42.10;25.85;;;;;;;;;;6329419;22;20067;-87
2022/10/23 03:56:55;;;;;;;45.95;27.05;;;;;;;;;;6294293;22;20087;-86
2022/10/23 04:03:02;;;;;;;51.75;31.23;;;;;;;;;;6347396;22;20014;-87
2022/10/23 04:05:41;;;;;;;59.90;33.75;;;;;;;;;;6320674;22;20022;-87
2022/10/23 04:08:17;;;;;;;68.38;34.08;;;;;;;;;;6318511;22;20343;-87
2022/10/23 04:10:53;;;;;;;66.57;33.95;;;;;;;;;;6268183;22;20022;-87
2022/10/23 04:13:20;;;;;;;60.67;30.45;;;;;;;;;;6345604;22;20023;-87
2022/10/23 04:15:50;;;;;;;62.92;34.17;;;;;;;;;;6345652;22;20061;-87
2022/10/23 04:18:16;;;;;;;64.90;31.85;;;;;;;;;;6317341;22;20023;-86
2022/10/23 04:20:52;;;;;;;66.32;33.50;;;;;;;;;;6291732;22;20025;-87
2022/10/23 04:23:18;;;;;;;56.28;30.67;;;;;;;;;;6292360;22;20098;-87
2022/10/23 04:25:44;;;;;;;58.15;31.75;;;;;;;;;;6319283;22;20422;-86
2022/10/23 04:28:10;;;;;;;57.03;30.48;;;;;;;;;;6344283;22;20010;-87
2022/10/23 04:30:37;;;;;;;54.00;31.20;;;;;;;;;;6318837;22;20640;-88
2022/10/23 04:33:03;;;;;;;61.35;33.08;;;;;;;;;;6345758;22;20022;-87
2022/10/23 04:35:30;;;;;;;59.15;31.23;;;;;;;;;;6292993;22;20025;-87
2022/10/23 04:38:04;;;;;;;57.33;32.85;;;;;;;;;;6265031;22;20072;-88
2022/10/23 04:40:30;;;;;;;54.00;31.27;;;;;;;;;;6319482;22;20098;-87
2022/10/23 04:42:57;;;;;;;59.45;33.25;;;;;;;;;;6344057;22;20011;-87
2022/10/23 04:45:23;;;;;;;59.33;32.50;;;;;;;;;;6319891;22;20071;-87
2022/10/23 04:47:58;;;;;;;63.05;32.25;;;;;;;;;;6277085;22;20014;-87
2022/10/23 04:53:40;;;;;;;61.88;32.58;;;;;;;;;;6327975;22;20048;-87
2022/10/23 04:56:10;;;;;;;56.95;30.95;;;;;;;;;;6320065;22;20015;-88
2022/10/23 04:58:37;;;;;;;48.72;29.02;;;;;;;;;;6345682;22;20026;-88
2022/10/23 05:01:03;;;;;;;50.97;27.73;;;;;;;;;;6346381;22;20015;-87
2022/10/23 05:03:29;;;;;;;57.10;29.63;;;;;;;;;;6316864;22;20018;-84
2022/10/23 05:05:56;;;;;;;46.58;27.55;;;;;;;;;;6289357;22;20033;-85
2022/10/23 05:08:28;;;;;;;45.00;27.60;;;;;;;;;;6344505;22;20018;-86
2022/10/23 05:10:54;;;;;;;49.50;28.63;;;;;;;;;;6315138;22;20089;-85
2022/10/23 05:13:26;;;;;;;54.88;29.65;;;;;;;;;;6316403;22;20034;-84
2022/10/23 05:15:59;;;;;;;50.80;28.60;;;;;;;;;;6314241;22;20026;-85
2022/10/23 05:18:26;;;;;;;54.05;27.70;;;;;;;;;;6315104;22;20066;-85
2022/10/23 05:21:06;;;;;;;55.88;29.55;;;;;;;;;;6313862;22;20019;-85
2022/10/23 05:23:33;;;;;;;56.25;27.58;;;;;;;;;;6342500;22;20459;-84
2022/10/23 05:26:04;;;;;;;44.70;26.20;;;;;;;;;;6290890;22;20072;-85
2022/10/23 05:28:30;;;;;;;56.60;27.55;;;;;;;;;;6316839;22;20482;-85
2022/10/23 05:31:00;;;;;;;48.25;27.33;;;;;;;;;;6342987;22;20042;-85
2022/10/23 05:33:26;;;;;;;47.83;28.45;;;;;;;;;;6317444;22;20034;-85
2022/10/23 05:35:53;;;;;;;52.60;28.58;;;;;;;;;;6343668;22;20014;-84
2022/10/23 05:38:20;;;;;;;51.65;29.52;;;;;;;;;;6342045;22;20090;-85
2022/10/23 05:40:46;;;;;;;53.08;28.70;;;;;;;;;;6313569;22;20034;-85
2022/10/23 05:43:21;;;;;;;54.15;29.98;;;;;;;;;;6285599;22;20093;-85
2022/10/23 05:45:47;;;;;;;50.28;28.38;;;;;;;;;;6312998;22;20029;-84
2022/10/23 05:48:14;;;;;;;47.13;27.67;;;;;;;;;;6340421;22;20051;-85
2022/10/23 05:50:40;;;;;;;49.80;28.40;;;;;;;;;;6313624;22;20474;-84
2022/10/23 05:53:10;;;;;;;42.97;27.13;;;;;;;;;;6287478;22;20018;-86
2022/10/23 05:55:37;;;;;;;60.13;29.20;;;;;;;;;;6343838;22;20023;-83
2022/10/23 05:58:03;;;;;;;59.88;29.98;;;;;;;;;;6343716;22;20066;-85
2022/10/23 06:00:29;;;;;;;54.22;30.42;;;;;;;;;;6345236;22;20026;-84
2022/10/23 06:02:55;;;;;;;55.03;30.23;;;;;;;;;;6317102;22;20806;-85
2022/10/23 06:05:21;;;;;;;62.15;32.67;;;;;;;;;;6319864;22;20038;-82
2022/10/23 06:07:47;;;;;;;53.33;29.20;;;;;;;;;;6316538;22;20029;-84
2022/10/23 06:10:13;;;;;;;55.47;29.92;;;;;;;;;;6344633;22;20071;-86
2022/10/23 06:12:39;;;;;;;48.70;28.77;;;;;;;;;;6318919;22;20030;-86
2022/10/23 06:15:06;;;;;;;56.40;30.65;;;;;;;;;;6324193;22;20015;-85
2022/10/23 06:17:32;;;;;;;57.67;31.13;;;;;;;;;;6327629;22;20070;-84
2022/10/23 06:20:01;;;;;;;58.72;32.00;;;;;;;;;;6326744;22;20126;-85
2022/10/23 06:22:41;;;;;;;67.00;34.22;;;;;;;;;;6347386;22;20022;-85
2022/10/23 06:25:07;;;;;;;59.97;32.58;;;;;;;;;;6290910;22;20023;-85
2022/10/23 06:27:34;;;;;;;60.55;32.97;;;;;;;;;;6345553;22;20021;-86
2022/10/23 06:30:00;;;;;;;61.58;32.33;;;;;;;;;;6288742;22;20029;-84
2022/10/23 06:32:31;;;;;;;63.75;35.45;;;;;;;;;;6295138;22;20003;-85
2022/10/23 06:34:57;;;;;;;56.85;31.65;;;;;;;;;;6352844;22;20023;-85
2022/10/23 06:37:23;;;;;;;59.78;34.50;;;;;;;;;;6330917;22;20030;-85
2022/10/23 06:39:49;;;;;;;57.33;32.60;;;;;;;;;;6344491;22;20041;-86
2022/10/23 06:42:15;;;;;;;60.97;32.53;;;;;;;;;;6347980;22;20029;-84
2022/10/23 06:44:41;;;;;;;60.10;33.08;;;;;;;;;;6316571;22;20104;-85
2022/10/23 06:47:17;;;;;;;55.05;30.65;;;;;;;;;;6311682;22;20019;-85
2022/10/23 06:49:44;;;;;;;71.63;34.35;;;;;;;;;;6315890;22;20026;-85
2022/10/23 06:52:22;;;;;;;70.45;34.33;;;;;;;;;;6312411;22;20033;-85
2022/10/23 06:54:48;;;;;;;66.97;35.83;;;;;;;;;;6263381;22;20023;-84
2022/10/23 06:57:14;;;;;;;62.67;34.13;;;;;;;;;;6339695;22;20015;-84
2022/10/23 06:59:40;;;;;;;70.88;36.42;;;;;;;;;;6341123;22;20323;-84
2022/10/23 07:02:06;;;;;;;63.15;33.55;;;;;;;;;;6286605;22;20577;-84
2022/10/23 07:04:32;;;;;;;60.20;31.75;;;;;;;;;;6341650;22;20022;-85
2022/10/23 07:06:59;;;;;;;61.03;30.52;;;;;;;;;;6285921;22;20011;-84
2022/10/23 07:09:37;;;;;;;60.80;28.90;;;;;;;;;;6315539;22;20023;-84
2022/10/23 07:12:03;;;;;;;56.55;29.25;;;;;;;;;;6314823;22;20026;-84
2022/10/23 07:14:31;;;;;;;52.97;29.35;;;;;;;;;;6288691;22;20046;-84
2022/10/23 07:16:57;;;;;;;51.22;27.95;;;;;;;;;;6316394;22;20038;-86
2022/10/23 07:19:30;;;;;;;50.65;27.75;;;;;;;;;;6289346;22;20026;-86
2022/10/23 07:21:56;;;;;;;53.20;28.80;;;;;;;;;;6318306;22;20054;-85
2022/10/23 07:24:22;;;;;;;48.30;28.70;;;;;;;;;;6315419;22;20076;-84
2022/10/23 07:26:48;;;;;;;48.83;28.15;;;;;;;;;;6343236;22;20630;-86
2022/10/23 07:29:14;;;;;;;53.97;28.73;;;;;;;;;;6309954;22;20023;-84
2022/10/23 07:31:40;;;;;;;53.10;27.48;;;;;;;;;;6339860;22;20025;-84
2022/10/23 07:34:07;;;;;;;47.17;27.65;;;;;;;;;;6338133;22;20018;-83
2022/10/23 07:36:33;;;;;;;49.00;26.05;;;;;;;;;;6287116;22;20045;-83
2022/10/23 07:38:59;;;;;;;51.75;26.90;;;;;;;;;;6310469;22;20029;-84
2022/10/23 07:41:37;;;;;;;46.65;26.50;;;;;;;;;;6341290;22;20029;-85
2022/10/23 07:44:03;;;;;;;44.75;24.50;;;;;;;;;;6340883;22;20018;-84
2022/10/23 07:46:35;;;;;;;44.00;24.42;;;;;;;;;;6287816;22;20045;-84
2022/10/23 07:49:18;;;;;;;41.85;24.10;;;;;;;;;;6342150;22;20326;-85
2022/10/23 07:51:44;;;;;;;40.80;24.25;;;;;;;;;;6313696;22;20022;-84
2022/10/23 07:54:11;;;;;;;47.45;24.50;;;;;;;;;;6315227;22;20022;-84
2022/10/23 07:56:37;;;;;;;41.67;24.02;;;;;;;;;;6341477;22;20045;-85
2022/10/23 07:59:04;;;;;;;42.40;23.58;;;;;;;;;;6316264;22;20019;-84
2022/10/23 08:01:37;;;;;;;42.22;22.70;;;;;;;;;;6344548;22;20018;-84
2022/10/23 08:04:03;;;;;;;35.65;22.15;;;;;;;;;;6288814;22;20019;-83
2022/10/23 08:06:29;;;;;;;39.47;23.20;;;;;;;;;;6290107;22;20026;-85
2022/10/23 08:11:59;;;;;;;36.80;21.42;;;;;;;;;;6343069;22;20025;-84
2022/10/23 08:14:25;;;;;;;32.72;20.35;;;;;;;;;;6347274;22;20091;-87
2022/10/23 08:19:36;;;;;;;35.88;21.42;;;;;;;;;;6345262;22;20037;-86
2022/10/23 08:22:02;;;;;;;35.13;21.00;;;;;;;;;;6303153;22;20021;-84
2022/10/23 08:24:29;;;;;;;35.78;19.35;;;;;;;;;;6307583;22;20019;-84
2022/10/23 08:26:55;;;;;;;41.97;20.10;;;;;;;;;;6279018;22;20015;-84
2022/10/23 08:29:21;;;;;;;46.17;23.33;;;;;;;;;;6292609;22;20014;-83
2022/10/23 08:31:48;;;;;;;40.60;22.90;;;;;;;;;;6290864;22;20023;-84
2022/10/23 08:34:15;;;;;;;40.42;23.70;;;;;;;;;;6345487;22;20098;-85
2022/10/23 08:36:41;;;;;;;35.75;23.58;;;;;;;;;;6318449;22;20038;-85
2022/10/23 08:39:07;;;;;;;31.05;22.30;;;;;;;;;;6315032;22;20569;-85
2022/10/23 08:41:35;;;;;;;34.53;22.02;;;;;;;;;;6324169;22;20045;-85
2022/10/23 08:44:11;;;;;;;38.15;21.90;;;;;;;;;;6351329;22;20049;-84
2022/10/23 08:49:51;;;;;;;29.35;20.17;;;;;;;;;;6338278;22;20061;-84
2022/10/23 08:52:17;;;;;;;;;;;;;;;;;;6287907;22;20284;-84
2022/10/23 08:57:38;;;;;;;29.13;18.58;;;;;;;;;;6323118;22;20357;-86
2022/10/23 09:00:06;;;;;;;30.30;17.52;;;;;;;;;;6341346;22;20097;-85
2022/10/23 09:02:35;;;;;;;30.42;18.70;;;;;;;;;;6343717;22;20052;-84
2022/10/23 09:05:01;;;;;;;28.42;17.77;;;;;;;;;;6342076;22;20014;-85
2022/10/23 09:07:48;;;;;;;28.42;17.35;;;;;;;;;;6314853;22;20023;-85
2022/10/23 09:10:30;;;;;;;26.77;17.17;;;;;;;;;;6304586;22;20019;-83
2022/10/23 09:13:19;;;;;;;32.47;17.58;;;;;;;;;;6313367;22;20023;-84
2022/10/23 09:15:50;;;;;;;28.92;18.77;;;;;;;;;;6232992;22;20029;-83
2022/10/23 09:18:17;;;;;;;28.98;18.45;;;;;;;;;;6286277;22;20026;-84
2022/10/23 09:20:44;;;;;;;34.00;22.15;;;;;;;;;;6341625;22;20463;-84
2022/10/23 09:23:10;;;;;;;30.95;18.83;;;;;;;;;;6342037;22;20625;-83
2022/10/23 09:25:37;;;;;;;23.73;18.55;;;;;;;;;;6341525;22;20022;-84
2022/10/23 09:34:17;;;;;;;23.98;16.58;;;;;;;;;;6314189;22;20018;-83
2022/10/23 09:37:07;;;;;;;27.10;18.75;;;;;;;;;;6343562;22;20131;-84
2022/10/23 09:39:37;;;;;;;21.85;15.75;;;;;;;;;;6315325;22;20045;-85
2022/10/23 09:42:25;;;;;;;24.30;16.48;;;;;;;;;;6343532;22;20023;-85
2022/10/23 09:45:14;;;;;;;21.55;15.65;;;;;;;;;;6282188;22;20988;-83
2022/10/23 09:48:06;;;;;;;20.08;15.23;;;;;;;;;;6276416;22;20031;-85
2022/10/23 09:53:46;;;;;;;20.38;14.35;;;;;;;;;;6280700;22;20015;-86
2022/10/23 09:59:54;;;;;;;25.95;15.60;;;;;;;;;;6283852;22;20248;-86
2022/10/23 10:02:36;;;;;;;18.98;14.20;;;;;;;;;;6287805;22;20023;-85
2022/10/23 10:08:43;;;;;;;16.70;12.55;;;;;;;;;;6295825;22;20273;-85
2022/10/23 10:11:12;;;;;;;21.65;13.15;;;;;;;;;;6262810;22;20503;-84
2022/10/23 10:13:50;;;;;;;27.27;13.75;;;;;;;;;;6283762;22;20050;-84
2022/10/23 10:16:47;;;;;;;18.65;14.68;;;;;;;;;;6277122;22;20023;-83
2022/10/23 10:19:40;;;;;;;28.92;14.60;;;;;;;;;;6242547;22;20023;-85
2022/10/23 10:25:30;;;;;;;22.05;14.80;;;;;;;;;;6278531;22;20019;-85
2022/10/23 10:28:06;;;;;;;22.35;14.02;;;;;;;;;;6223890;22;20019;-85
2022/10/23 10:30:51;;;;;;;19.17;12.35;;;;;;;;;;6279418;22;20039;-86
2022/10/23 10:36:42;;;;;;;18.70;12.68;;;;;;;;;;6341425;22;20023;-85
2022/10/23 10:39:12;;;;;;;19.05;13.30;;;;;;;;;;6289288;22;20021;-85
2022/10/23 10:41:49;;;;;;;19.27;12.90;;;;;;;;;;6315294;22;20086;-86
2022/10/23 10:44:15;;;;;;;20.50;11.95;;;;;;;;;;6314699;22;20091;-86
2022/10/23 10:46:44;;;;;;;18.05;11.23;;;;;;;;;;6312624;22;20015;-86
2022/10/23 10:49:16;;;;;;;17.83;11.43;;;;;;;;;;6314209;22;20023;-86
2022/10/23 10:51:48;;;;;;;21.17;11.95;;;;;;;;;;6286855;22;20074;-86
2022/10/23 10:54:39;;;;;;;19.10;11.52;;;;;;;;;;6343428;22;20022;-86
2022/10/23 11:00:18;;;;;;;20.33;11.10;;;;;;;;;;6344807;22;20023;-86
2022/10/23 11:03:22;;;;;;;17.48;10.75;;;;;;;;;;6340721;22;20101;-86
2022/10/23 11:06:07;;;;;;;16.90;10.05;;;;;;;;;;6290570;22;20652;-86
2022/10/23 11:08:57;;;;;;;17.67;11.57;;;;;;;;;;6297301;22;20015;-86
2022/10/23 11:11:42;;;;;;;21.15;11.68;;;;;;;;;;6178689;23;20027;-85
2022/10/23 11:14:29;;;;;;;17.05;12.00;;;;;;;;;;6318909;22;20015;-85
2022/10/23 11:17:35;;;;;;;22.45;11.18;;;;;;;;;;6342923;22;20025;-86
2022/10/23 11:26:39;;;;;;;21.50;11.55;;;;;;;;;;6344804;22;20029;-89
2022/10/23 11:29:15;;;;;;;17.27;11.02;;;;;;;;;;6317784;22;20065;-88
2022/10/23 11:32:00;;;;;;;20.17;11.68;;;;;;;;;;6289402;22;20115;-86
2022/10/23 11:34:26;;;;;;;16.13;11.00;;;;;;;;;;6292742;22;20023;-87
2022/10/23 11:37:10;;;;;;;17.83;11.02;;;;;;;;;;6289324;22;20011;-87
2022/10/23 11:46:24;;;;;;;15.98;10.73;;;;;;;;;;6346038;22;20526;-87
2022/10/23 11:48:51;;;;;;;18.30;11.60;;;;;;;;;;6326759;22;20037;-87
2022/10/23 11:55:26;;;;;;;22.52;13.95;;;;;;;;;;6334932;22;20033;-89
2022/10/23 11:58:09;;;;;;;16.05;11.48;;;;;;;;;;6322234;22;20019;-85
2022/10/23 12:00:39;;;;;;;18.27;10.70;;;;;;;;;;6319192;22;20026;-84
2022/10/23 12:06:39;;;;;;;17.92;11.80;;;;;;;;;;6350036;22;20017;-85
2022/10/23 12:09:24;;;;;;;14.18;10.40;;;;;;;;;;6315689;22;20029;-83
2022/10/23 12:14:34;;;;;;;18.27;11.00;;;;;;;;;;6341987;22;20071;-84
2022/10/23 12:17:01;;;;;;;21.30;11.02;;;;;;;;;;6290280;22;20018;-85
2022/10/23 12:19:42;;;;;;;22.90;10.13;;;;;;;;;;6315508;22;20015;-84
2022/10/23 12:22:20;;;;;;;;;;;;;;;;;;;;;
2022/10/23 12:25:05;;;;;;;15.93;9.98;;;;;;;;;;6235121;22;20015;-86
2022/10/23 12:27:34;;;;;;;16.60;11.23;;;;;;;;;;6289604;22;20048;-85
2022/10/23 12:33:24;;;;;;;14.48;11.05;;;;;;;;;;6310799;22;20025;-85
2022/10/23 12:38:58;;;;;;;18.88;10.85;;;;;;;;;;6320595;22;20693;-83
2022/10/23 12:41:28;;;;;;;18.40;10.35;;;;;;;;;;6225236;22;20047;-86
2022/10/23 12:47:17;;;;;;;12.40;9.20;;;;;;;;;;6194281;22;20038;-86
2022/10/23 12:49:48;;;;;;;15.35;10.00;;;;;;;;;;6274380;22;20023;-87
2022/10/23 12:52:15;;;;;;;18.08;10.18;;;;;;;;;;6243318;22;20020;-86
2022/10/23 12:54:41;;;;;;;16.10;9.48;;;;;;;;;;6293145;22;20090;-88
2022/10/23 12:57:34;;;;;;;16.13;9.68;;;;;;;;;;6297625;22;20030;-86
2022/10/23 13:00:02;;;;;;;18.17;10.80;;;;;;;;;;6296908;22;20022;-86
2022/10/23 13:02:29;;;;;;;16.35;8.40;;;;;;;;;;6244648;22;20023;-89
2022/10/23 13:05:12;;;;;;;9.00;7.05;;;;;;;;;;6244568;22;20024;-87
2022/10/23 13:07:42;;;;;;;12.15;6.88;;;;;;;;;;6301330;22;20023;-88
2022/10/23 13:10:13;;;;;;;35.75;21.15;;;;;;;;;;6299867;22;20042;-87
2022/10/23 13:12:40;;;;;;;52.50;33.17;;;;;;;;;;6247451;22;20015;-87
2022/10/23 13:15:06;;;;;;;33.55;22.02;;;;;;;;;;6247747;22;20020;-87
2022/10/23 13:17:34;;;;;;;18.17;7.20;;;;;;;;;;6248370;22;20483;-84
2022/10/23 13:20:22;;;;;;;13.18;6.70;;;;;;;;;;6299929;22;20016;-85
2022/10/23 13:22:49;;;;;;;13.40;6.22;;;;;;;;;;6297683;22;20012;-86
2022/10/23 13:25:29;;;;;;;13.48;8.63;;;;;;;;;;6244628;22;20019;-85
2022/10/23 13:28:08;;;;;;;11.07;6.93;;;;;;;;;;6271500;22;20023;-86
2022/10/23 13:30:36;;;;;;;10.70;5.82;;;;;;;;;;6304462;22;20359;-86
2022/10/23 13:33:40;;;;;;;9.57;5.70;;;15.90;99.90;;;;;;6257732;22;20057;-87
2022/10/23 13:36:06;;;;;;;12.73;6.70;;;;;;;;;;6322043;22;20026;-86
2022/10/23 13:38:36;;;;;;;12.48;6.50;;;;;;;;;;6300192;22;20016;-84
2022/10/23 13:41:04;;;;;;;12.43;6.47;;;;;;;;;;6310649;22;20015;-83
2022/10/23 13:43:31;;;;;;;14.90;7.90;;;;;;;;;;6309739;22;20350;-83
2022/10/23 13:45:58;;;;;;;14.77;6.88;;;;;;;;;;6273741;22;20090;-85
2022/10/23 13:48:30;;;;;;;12.02;6.88;;;;;;;;;;6297435;22;20065;-86
2022/10/23 13:51:12;;;;;;;14.95;7.15;;;;;;;;;;6290268;22;20023;-86
2022/10/23 13:53:39;;;;;;;10.88;6.65;;;;;;;;;;6269345;22;20019;-85
2022/10/23 13:56:05;;;;;;;13.93;6.65;;;;;;;;;;6299499;22;20148;-85
2022/10/23 13:58:31;;;;;;;11.48;7.30;;;;;;;;;;6302378;22;20145;-87
2022/10/23 14:00:57;;;;;;;10.98;7.32;;;;;;;;;;6301958;22;20019;-87
2022/10/23 14:03:49;;;;;;;13.60;7.25;;;15.50;99.90;;;;;;6302998;22;20406;-88
2022/10/23 14:06:15;;;;;;;10.98;7.13;;;;;;;;;;6302671;22;20021;-91
2022/10/23 14:08:41;;;;;;;17.45;8.15;;;;;;;;;;6302527;22;20019;-88
2022/10/23 14:11:08;;;;;;;15.90;7.50;;;;;;;;;;6250327;22;20381;-90
2022/10/23 14:13:38;;;;;;;16.92;8.05;;;;;;;;;;6277544;22;20030;-92
2022/10/23 14:18:39;;;;;;;12.80;8.10;;;;;;;;;;6326343;22;20172;-88
2022/10/23 14:21:43;;;;;;;12.73;8.30;;;;;;;;;;6253264;22;20022;-88
2022/10/23 14:24:14;;;;;;;17.23;8.40;;;;;;;;;;6279050;22;20325;-87
2022/10/23 14:26:42;;;;;;;14.45;8.77;;;;;;;;;;6250572;22;20324;-86
2022/10/23 14:29:28;;;;;;;14.73;7.55;;;;;;;;;;6250440;22;20016;-87
2022/10/23 14:31:55;;;;;;;20.90;11.32;;;;;;;;;;6278344;22;20015;-88
2022/10/23 14:34:56;;;;;;;22.05;10.27;;;;;;;;;;6251435;22;20565;-88
2022/10/23 14:37:22;;;;;;;19.73;10.63;;;;;;;;;;6273871;22;20019;-87
2022/10/23 14:40:00;;;;;;;17.70;10.10;;;;;;;;;;6276799;22;20047;-88
2022/10/23 14:48:27;;;;;;;21.77;9.85;;;;;;;;;;6274723;22;20032;-90
2022/10/23 14:53:29;;;;;;;22.65;8.55;;;;;;;;;;6335855;22;20022;-89
2022/10/23 14:56:14;;;;;;;18.15;10.65;;;;;;;;;;6259528;22;20029;-91
2022/10/23 14:59:06;;;;;;;18.65;8.82;;;;;;;;;;6288252;22;20027;-92
2022/10/23 15:10:04;;;;;;;8.55;5.93;;;;;;;;;;6214037;23;20335;-86
2022/10/23 15:12:30;;;;;;;16.50;9.85;;;;;;;;;;6212702;23;20453;-86
2022/10/23 15:14:56;;;;;;;15.95;10.52;;;;;;;;;;6211372;23;20023;-86
2022/10/23 15:17:22;;;;;;;22.10;10.52;;;;;;;;;;6211064;23;20056;-88
2022/10/23 15:23:20;;;;;;;11.68;6.00;;;;;;;;;;6290811;22;20020;-88
2022/10/23 15:25:54;;;;;;;10.15;5.03;;;;;;;;;;6282547;22;20015;-89
2022/10/23 15:28:29;;;;;;;9.75;5.65;;;;;;;;;;6253851;22;20015;-89
2022/10/23 15:31:39;;;;;;;7.22;4.68;;;;;;;;;;6255562;22;20097;-88
2022/10/23 15:34:38;;;;;;;11.75;7.90;;;;;;;;;;6279815;22;20078;-89
2022/10/23 15:37:10;;;;;;;20.27;5.63;;;;;;;;;;6253767;22;20047;-88
2022/10/23 15:52:23;;;;;;;13.40;4.72;;;;;;;;;;6283951;22;20454;-89
2022/10/23 15:55:12;;;;;;;7.30;4.70;;;;;;;;;;6282372;22;20106;-88
2022/10/23 15:58:02;;;;;;;11.65;4.40;;;;;;;;;;6310116;22;20356;-88
2022/10/23 16:00:48;;;;;;;9.43;4.50;;;;;;;;;;6274861;22;20021;-88
2022/10/23 16:03:14;;;;;;;7.05;4.72;;;;;;;;;;6258226;22;20015;-89
2022/10/23 16:05:40;;;;;;;7.80;5.22;;;;;;;;;;6284264;22;20030;-89
2022/10/23 16:33:12;;;;;;;11.25;4.55;;;;;;;;;;6311714;22;20451;-88
2022/10/23 16:36:16;;;;;;;9.00;4.28;;;15.20;99.90;;;;;;6336314;22;20026;-89
2022/10/23 16:38:45;;;;;;;8.00;4.70;;;;;;;;;;6280126;22;20050;-89
2022/10/23 16:41:11;;;;;;;7.30;4.30;;;;;;;;;;6308282;22;20398;-87
2022/10/23 16:43:38;;;;;;;9.73;4.82;;;;;;;;;;6335150;22;20010;-89
2022/10/23 16:46:18;;;;;;;10.60;4.68;;;;;;;;;;6307068;22;20335;-89
2022/10/23 16:48:44;;;;;;;8.77;4.10;;;;;;;;;;6282320;22;20018;-89
2022/10/23 16:51:28;;;;;;;9.18;4.60;;;;;;;;;;6334850;22;20072;-90
2022/10/23 16:54:06;;;;;;;8.43;4.70;;;;;;;;;;6281395;22;20022;-89
2022/10/23 16:56:32;;;;;;;11.35;4.68;;;;;;;;;;6337147;22;20101;-89
2022/10/23 16:59:11;;;;;;;8.10;3.78;;;;;;;;;;6281251;22;20014;-88
2022/10/23 17:01:37;;;;;;;7.85;3.65;;;;;;;;;;6284848;22;20439;-88
2022/10/23 17:04:05;;;;;;;12.73;4.03;;;;;;;;;;6280137;22;20117;-89
2022/10/23 17:06:32;;;;;;;6.50;3.80;;;;;;;;;;6281943;22;20019;-87
2022/10/23 17:08:59;;;;;;;10.05;3.92;;;;;;;;;;6279002;22;20033;-89
2022/10/23 17:11:43;;;;;;;8.75;4.25;;;;;;;;;;6282339;22;20026;-89
2022/10/23 17:14:18;;;;;;;7.40;4.00;;;;;;;;;;6302669;22;20015;-88
2022/10/23 17:16:54;;;;;;;10.43;3.88;;;;;;;;;;6307329;22;20113;-89
2022/10/23 17:19:22;;;;;;;5.45;3.55;;;;;;;;;;6333663;22;20037;-89
2022/10/23 17:21:48;;;;;;;7.95;4.30;;;;;;;;;;6283293;22;20015;-89
2022/10/23 17:24:18;;;;;;;9.00;4.15;;;;;;;;;;6306253;22;20015;-89
2022/10/23 17:26:48;;;;;;;6.57;3.95;;;;;;;;;;6282402;22;20038;-89
2022/10/23 17:29:46;;;;;;;8.27;4.28;;;;;;;;;;6305276;22;20110;-89
2022/10/23 17:32:12;;;;;;;13.40;4.30;;;;;;;;;;6280971;22;20027;-89
2022/10/23 17:34:38;;;;;;;9.68;4.40;;;;;;;;;;6281130;22;20023;-88
2022/10/23 17:40:39;;;;;;;9.18;4.18;;;;;;;;;;6285606;22;20101;-89
2022/10/23 17:43:05;;;;;;;9.80;3.88;;;;;;;;;;6278802;22;20026;-89
2022/10/23 17:45:39;;;;;;;4.70;3.65;;;;;;;;;;6253047;22;20015;-90
2022/10/23 17:48:16;;;;;;;7.18;4.35;;;;;;;;;;6305205;22;20080;-88
2022/10/23 17:50:46;;;;;;;5.95;3.88;;;;;;;;;;6304161;22;20021;-88
2022/10/23 17:53:21;;;;;;;7.88;3.88;;;;;;;;;;6276422;22;20025;-89
2022/10/23 17:56:05;;;;;;;6.95;4.07;;;;;;;;;;6303605;22;20468;-89
2022/10/23 17:58:43;;;;;;;6.47;3.97;;;;;;;;;;6276704;22;20019;-89
2022/10/23 18:01:11;;;;;;;8.02;3.45;;;;;;;;;;6279213;22;20066;-88
2022/10/23 18:03:38;;;;;;;7.32;4.35;;;;;;;;;;6303704;22;20025;-89
2022/10/23 18:06:08;;;;;;;8.32;3.88;;;;;;;;;;6332877;22;20056;-89
2022/10/23 18:08:52;;;;;;;10.30;3.67;;;;;;;;;;6302485;22;20019;-88